createdAt,value
2018-04-18T00:02:10.054Z,91.30
2018-04-18T00:04:37.522Z,88.60
2018-04-18T00:07:04.977Z,90.30
2018-04-18T00:09:32.450Z,90.70
2018-04-18T00:11:59.914Z,90.50
2018-04-18T00:14:27.377Z,90.80
2018-04-18T00:16:54.842Z,91.10
2018-04-18T00:19:22.313Z,91.10
2018-04-18T00:21:55.775Z,93.80
2018-04-18T00:24:23.249Z,96.30
2018-04-18T00:26:50.711Z,93.40
2018-04-18T00:29:18.197Z,90.80
2018-04-18T00:31:45.658Z,93.10
2018-04-18T00:34:13.130Z,94.60
2018-04-18T00:36:40.593Z,95.30
2018-04-18T00:39:08.063Z,95.30
2018-04-18T00:41:40.693Z,96.80
2018-04-18T00:44:08.177Z,99.10
2018-04-18T00:46:35.634Z,99.90
2018-04-18T00:49:03.120Z,99.90
2018-04-18T00:51:32.511Z,99.90
2018-04-18T00:54:00.747Z,99.90
2018-04-18T00:56:28.214Z,99.90
2018-04-18T00:58:55.685Z,99.90
2018-04-18T01:01:23.146Z,99.90
2018-04-18T01:03:50.614Z,99.90
2018-04-18T01:06:18.082Z,99.90
2018-04-18T01:08:45.558Z,99.90
2018-04-18T01:11:13.014Z,99.90
2018-04-18T01:13:40.489Z,99.90
2018-04-18T01:16:07.961Z,99.90
2018-04-18T01:18:35.429Z,99.90
2018-04-18T01:21:02.891Z,99.90
2018-04-18T01:23:30.362Z,99.90
2018-04-18T01:25:58.738Z,99.90
2018-04-18T01:28:26.207Z,99.90
2018-04-18T01:31:03.662Z,99.90
2018-04-18T01:33:31.129Z,99.90
2018-04-18T01:35:58.585Z,99.90
2018-04-18T01:38:26.078Z,99.90
2018-04-18T01:40:53.531Z,99.90
2018-04-18T01:43:20.985Z,99.90
2018-04-18T01:45:48.453Z,99.90
2018-04-18T01:48:16.918Z,99.90
2018-04-18T01:50:50.641Z,99.90
2018-04-18T01:53:18.107Z,99.90
2018-04-18T01:55:45.575Z,99.90
2018-04-18T01:58:13.806Z,99.90
2018-04-18T02:00:41.282Z,99.90
2018-04-18T02:03:08.747Z,99.90
2018-04-18T02:05:36.214Z,99.90
2018-04-18T02:08:06.709Z,99.90
2018-04-18T02:10:34.946Z,99.90
2018-04-18T02:13:02.406Z,99.90
2018-04-18T02:15:33.579Z,99.90
2018-04-18T02:18:01.039Z,99.90
2018-04-18T02:20:29.489Z,99.90
2018-04-18T02:22:57.715Z,99.90
2018-04-18T02:25:25.187Z,99.90
2018-04-18T02:27:53.670Z,99.90
2018-04-18T02:30:23.059Z,99.90
2018-04-18T02:32:50.517Z,99.90
2018-04-18T02:35:17.997Z,99.90
2018-04-18T02:37:46.226Z,99.90
2018-04-18T02:40:13.689Z,99.90
2018-04-18T02:42:41.149Z,99.90
2018-04-18T02:45:08.618Z,99.90
2018-04-18T02:47:36.097Z,99.90
2018-04-18T02:50:03.567Z,99.90
2018-04-18T02:52:31.027Z,99.90
2018-04-18T02:54:58.494Z,99.90
2018-04-18T02:57:25.950Z,99.90
2018-04-18T02:59:56.995Z,99.90
2018-04-18T03:02:24.458Z,99.90
2018-04-18T03:04:56.245Z,99.90
2018-04-18T03:07:23.702Z,99.90
2018-04-18T03:09:51.175Z,99.90
2018-04-18T03:12:18.641Z,99.90
2018-04-18T03:14:46.871Z,99.90
2018-04-18T03:17:14.338Z,99.90
2018-04-18T03:19:41.806Z,99.90
2018-04-18T03:22:10.249Z,99.90
2018-04-18T03:24:37.722Z,99.90
2018-04-18T03:27:09.802Z,99.90
2018-04-18T03:29:52.069Z,99.90
2018-04-18T03:32:19.529Z,99.90
2018-04-18T03:34:56.865Z,99.90
2018-04-18T03:37:24.325Z,99.90
2018-04-18T03:39:53.790Z,99.90
2018-04-18T03:42:21.262Z,99.90
2018-04-18T03:44:48.734Z,99.90
2018-04-18T03:47:16.207Z,99.90
2018-04-18T03:49:43.674Z,99.90
2018-04-18T03:52:34.239Z,99.90
2018-04-18T03:55:01.714Z,99.90
2018-04-18T03:57:29.172Z,99.90
2018-04-18T03:59:57.617Z,99.90
2018-04-18T04:02:25.079Z,99.90
2018-04-18T04:04:53.313Z,99.90
2018-04-18T04:07:20.782Z,99.90
2018-04-18T04:09:48.253Z,99.90
2018-04-18T04:12:15.713Z,99.90
2018-04-18T04:14:43.189Z,99.90
2018-04-18T04:17:22.372Z,99.90
2018-04-18T04:20:02.460Z,99.90
2018-04-18T04:22:41.782Z,99.90
2018-04-18T04:25:09.257Z,99.90
2018-04-18T04:27:52.301Z,99.90
2018-04-18T04:30:20.539Z,99.90
2018-04-18T04:32:47.993Z,99.90
2018-04-18T04:35:17.391Z,99.90
2018-04-18T04:37:44.859Z,99.90
2018-04-18T04:40:12.342Z,99.90
2018-04-18T04:42:39.807Z,99.90
2018-04-18T04:45:07.249Z,99.90
2018-04-18T04:47:35.490Z,99.90
2018-04-18T04:50:03.015Z,99.90
2018-04-18T04:52:30.499Z,99.90
2018-04-18T04:54:57.958Z,99.90
2018-04-18T04:57:26.206Z,99.90
2018-04-18T04:59:53.671Z,99.90
2018-04-18T05:02:21.145Z,99.90
2018-04-18T05:04:48.602Z,99.90
2018-04-18T05:07:16.074Z,99.90
2018-04-18T05:09:53.668Z,99.90
2018-04-18T05:12:21.194Z,99.90
2018-04-18T05:14:49.412Z,99.90
2018-04-18T05:17:16.888Z,99.90
2018-04-18T05:19:44.343Z,99.90
2018-04-18T05:22:12.718Z,99.90
2018-04-18T05:24:40.945Z,99.90
2018-04-18T05:27:08.418Z,99.90
2018-04-18T05:29:35.883Z,99.90
2018-04-18T05:32:03.349Z,99.90
2018-04-18T05:34:30.809Z,99.90
2018-04-18T05:36:58.273Z,99.90
2018-04-18T05:39:25.732Z,99.90
2018-04-18T05:42:05.047Z,99.90
2018-04-18T05:44:33.468Z,99.90
2018-04-18T05:47:01.854Z,99.90
2018-04-18T05:49:30.276Z,99.90
2018-04-18T05:51:57.775Z,99.90
2018-04-18T05:54:25.260Z,99.90
2018-04-18T05:56:52.733Z,99.90
2018-04-18T05:59:20.957Z,99.90
2018-04-18T06:01:48.433Z,99.90
2018-04-18T06:04:15.898Z,99.90
2018-04-18T06:06:43.369Z,99.90
2018-04-18T06:09:10.830Z,99.90
2018-04-18T06:11:38.338Z,99.90
2018-04-18T06:14:05.800Z,99.90
2018-04-18T06:16:33.265Z,99.90
2018-04-18T06:19:00.741Z,99.90
2018-04-18T06:21:28.213Z,99.60
2018-04-18T06:23:55.674Z,92.80
2018-04-18T06:26:23.141Z,86.50
2018-04-18T06:28:50.603Z,82.90
2018-04-18T06:31:18.085Z,68.00
2018-04-18T06:33:45.559Z,66.70
2018-04-18T06:36:13.041Z,48.30
2018-04-18T06:38:40.494Z,32.70
2018-04-18T06:41:07.967Z,27.50
2018-04-18T06:43:35.430Z,28.50
2018-04-18T06:46:02.903Z,24.00
2018-04-18T06:48:30.363Z,24.40
2018-04-18T06:50:57.858Z,22.20
2018-04-18T06:53:25.321Z,15.60
2018-04-18T06:55:52.777Z,13.00
2018-04-18T06:58:20.241Z,5.20
2018-04-18T07:00:47.706Z,4.20
2018-04-18T07:03:15.178Z,1.00
2018-04-18T07:05:42.642Z,1.00
2018-04-18T07:08:10.105Z,1.00
2018-04-18T07:10:37.563Z,1.00
2018-04-18T07:13:05.034Z,1.00
2018-04-18T07:15:32.490Z,1.00
2018-04-18T07:18:00.735Z,1.00
2018-04-18T07:20:28.190Z,1.00
2018-04-18T07:22:56.425Z,1.00
2018-04-18T07:25:24.657Z,1.00
2018-04-18T07:27:52.117Z,1.00
2018-04-18T07:30:19.578Z,1.00
2018-04-18T07:32:47.048Z,1.00
2018-04-18T07:35:14.497Z,1.00
2018-04-18T07:37:42.730Z,1.00
2018-04-18T07:40:10.236Z,1.00
2018-04-18T07:42:38.423Z,1.00
2018-04-18T07:45:05.870Z,1.00
2018-04-18T07:47:33.346Z,1.00
2018-04-18T07:50:00.798Z,1.00
2018-04-18T07:52:28.261Z,1.00
2018-04-18T07:54:55.786Z,1.00
2018-04-18T07:57:23.206Z,1.00
2018-04-18T07:59:50.673Z,1.00
2018-04-18T08:02:18.142Z,1.00
2018-04-18T08:04:46.412Z,1.00
2018-04-18T08:07:13.877Z,1.00
2018-04-18T08:09:41.338Z,1.00
2018-04-18T08:12:09.571Z,1.00
2018-04-18T08:14:37.045Z,1.00
2018-04-18T08:17:04.510Z,1.00
2018-04-18T08:19:31.965Z,1.00
2018-04-18T08:21:59.444Z,1.00
2018-04-18T08:24:26.914Z,1.00
2018-04-18T08:26:54.383Z,1.00
2018-04-18T08:29:21.849Z,1.00
2018-04-18T08:31:49.321Z,1.00
2018-04-18T08:34:16.778Z,1.00
2018-04-18T08:36:44.254Z,1.00
2018-04-18T08:39:11.718Z,1.00
2018-04-18T08:41:39.189Z,1.00
2018-04-18T08:44:06.646Z,1.00
2018-04-18T08:46:34.118Z,1.00
2018-04-18T08:49:01.586Z,1.00
2018-04-18T08:51:29.055Z,1.00
2018-04-18T08:53:56.517Z,1.00
2018-04-18T08:56:23.984Z,1.00
2018-04-18T08:58:51.466Z,1.00
2018-04-18T09:01:18.922Z,1.00
2018-04-18T09:03:47.150Z,1.00
2018-04-18T09:06:14.641Z,1.00
2018-04-18T09:08:42.095Z,1.00
2018-04-18T09:11:09.554Z,1.00
2018-04-18T09:13:37.022Z,1.00
2018-04-18T09:16:04.469Z,1.00
2018-04-18T09:18:31.943Z,1.00
2018-04-18T09:20:59.403Z,1.00
2018-04-18T09:23:26.874Z,1.00
2018-04-18T09:25:54.343Z,1.00
2018-04-18T09:28:21.815Z,1.00
2018-04-18T09:30:49.270Z,1.00
2018-04-18T09:33:17.510Z,1.00
2018-04-18T09:35:44.977Z,1.00
2018-04-18T09:38:12.455Z,1.00
2018-04-18T09:40:39.917Z,1.00
2018-04-18T09:43:07.382Z,1.00
2018-04-18T09:45:34.837Z,1.00
2018-04-18T09:48:02.315Z,1.00
2018-04-18T09:50:29.780Z,1.00
2018-04-18T09:52:58.010Z,1.00
2018-04-18T09:55:25.477Z,1.00
2018-04-18T09:57:52.944Z,1.00
2018-04-18T10:00:20.408Z,1.00
2018-04-18T10:02:53.707Z,1.00
2018-04-18T10:05:21.166Z,1.00
2018-04-18T10:07:48.628Z,1.00
2018-04-18T10:10:16.113Z,1.00
2018-04-18T10:12:44.328Z,1.00
2018-04-18T10:15:11.790Z,1.00
2018-04-18T10:17:39.257Z,1.00
2018-04-18T10:20:06.727Z,1.00
2018-04-18T10:22:34.201Z,1.00
2018-04-18T10:25:01.661Z,1.00
2018-04-18T10:27:29.127Z,1.00
2018-04-18T10:29:56.585Z,1.00
2018-04-18T10:32:24.053Z,1.00
2018-04-18T10:34:51.508Z,1.00
2018-04-18T10:37:18.978Z,1.00
2018-04-18T10:39:46.465Z,1.00
2018-04-18T10:42:13.933Z,1.00
2018-04-18T10:44:41.398Z,1.00
2018-04-18T10:47:08.883Z,1.00
2018-04-18T10:49:36.343Z,1.00
2018-04-18T10:52:03.801Z,1.00
2018-04-18T10:54:31.265Z,1.00
2018-04-18T10:56:58.729Z,1.00
2018-04-18T10:59:26.197Z,1.00
2018-04-18T11:01:53.662Z,1.00
2018-04-18T11:04:21.143Z,1.00
2018-04-18T11:06:48.597Z,1.00
2018-04-18T11:09:16.074Z,1.00
2018-04-18T11:11:43.536Z,1.00
2018-04-18T11:14:11.034Z,1.00
2018-04-18T11:16:38.489Z,1.00
2018-04-18T11:19:05.977Z,1.00
2018-04-18T11:21:33.432Z,1.00
2018-04-18T11:24:00.900Z,1.00
2018-04-18T11:26:28.358Z,1.00
2018-04-18T11:28:55.836Z,1.00
2018-04-18T11:31:23.306Z,1.00
2018-04-18T11:33:51.561Z,1.00
2018-04-18T11:36:19.772Z,1.00
2018-04-18T11:38:47.253Z,1.00
2018-04-18T11:41:14.711Z,1.00
2018-04-18T11:43:42.174Z,1.00
2018-04-18T11:46:09.636Z,1.00
2018-04-18T11:48:37.875Z,1.00
2018-04-18T11:51:05.357Z,1.00
2018-04-18T11:53:32.820Z,1.00
2018-04-18T11:56:00.279Z,1.00
2018-04-18T11:58:27.752Z,1.00
2018-04-18T12:00:55.213Z,1.00
2018-04-18T12:03:22.688Z,1.00
2018-04-18T12:05:50.146Z,1.00
2018-04-18T12:08:17.613Z,1.00
2018-04-18T12:10:45.071Z,1.00
2018-04-18T12:13:12.534Z,1.00
2018-04-18T12:15:39.998Z,1.00
2018-04-18T12:18:08.226Z,1.00
2018-04-18T12:20:35.690Z,1.00
2018-04-18T12:23:03.155Z,1.00
2018-04-18T12:25:30.622Z,1.00
2018-04-18T12:27:58.093Z,1.00
2018-04-18T12:30:25.545Z,1.00
2018-04-18T12:32:53.006Z,1.00
2018-04-18T12:35:20.468Z,1.00
2018-04-18T12:37:48.701Z,1.00
2018-04-18T12:40:16.163Z,1.00
2018-04-18T12:42:43.627Z,1.00
2018-04-18T12:45:11.098Z,1.00
2018-04-18T12:47:38.562Z,1.00
2018-04-18T12:50:06.794Z,1.00
2018-04-18T12:52:34.257Z,1.00
2018-04-18T12:55:01.731Z,1.00
2018-04-18T12:57:29.395Z,1.00
2018-04-18T12:59:56.862Z,1.00
2018-04-18T13:02:24.321Z,1.00
2018-04-18T13:04:51.796Z,1.00
2018-04-18T13:07:19.257Z,1.00
2018-04-18T13:09:46.742Z,1.00
2018-04-18T13:12:14.198Z,1.00
2018-04-18T13:14:41.698Z,1.00
2018-04-18T13:17:09.160Z,1.00
2018-04-18T13:19:37.402Z,1.00
2018-04-18T13:22:04.869Z,1.00
2018-04-18T13:24:32.328Z,1.00
2018-04-18T13:26:59.790Z,1.00
2018-04-18T13:29:28.041Z,1.00
2018-04-18T13:31:55.508Z,1.00
2018-04-18T13:34:22.974Z,1.00
2018-04-18T13:36:50.436Z,1.00
2018-04-18T13:39:17.905Z,1.00
2018-04-18T13:41:45.360Z,1.00
2018-04-18T13:44:12.837Z,1.00
2018-04-18T13:46:40.289Z,1.00
2018-04-18T13:49:08.526Z,1.00
2018-04-18T13:51:35.977Z,1.00
2018-04-18T13:54:03.455Z,1.00
2018-04-18T13:56:30.917Z,1.00
2018-04-18T13:59:02.047Z,1.00
2018-04-18T14:01:30.282Z,1.00
2018-04-18T14:03:57.747Z,1.00
2018-04-18T14:06:25.213Z,1.00
2018-04-18T14:08:52.682Z,1.00
2018-04-18T14:11:20.150Z,1.00
2018-04-18T14:13:47.621Z,1.00
2018-04-18T14:16:15.101Z,1.00
2018-04-18T14:18:42.568Z,1.00
2018-04-18T14:21:10.046Z,1.00
2018-04-18T14:23:37.513Z,1.00
2018-04-18T14:26:04.998Z,1.00
2018-04-18T14:28:32.456Z,1.00
2018-04-18T14:30:59.916Z,1.00
2018-04-18T14:33:27.386Z,1.00
2018-04-18T14:35:54.841Z,1.00
2018-04-18T14:38:22.317Z,1.00
2018-04-18T14:40:49.781Z,1.00
2018-04-18T14:43:17.257Z,1.00
2018-04-18T14:45:44.721Z,1.00
2018-04-18T14:48:12.185Z,1.00
2018-04-18T14:50:40.461Z,1.00
2018-04-18T14:53:07.945Z,1.00
2018-04-18T14:55:35.390Z,1.00
2018-04-18T14:58:02.862Z,1.00
2018-04-18T15:00:30.322Z,1.00
2018-04-18T15:02:57.799Z,1.00
2018-04-18T15:05:25.267Z,1.00
2018-04-18T15:07:52.754Z,1.00
2018-04-18T15:10:20.218Z,1.00
2018-04-18T15:12:47.699Z,1.00
2018-04-18T15:15:15.159Z,1.00
2018-04-18T15:17:42.634Z,1.00
2018-04-18T15:20:10.102Z,1.00
2018-04-18T15:22:37.626Z,1.00
2018-04-18T15:25:05.047Z,1.00
2018-04-18T15:27:32.514Z,1.00
2018-04-18T15:29:59.974Z,1.00
2018-04-18T15:32:27.449Z,1.00
2018-04-18T15:34:54.921Z,1.00
2018-04-18T15:37:32.786Z,1.00
2018-04-18T15:40:00.502Z,1.00
2018-04-18T15:42:27.973Z,1.00
2018-04-18T15:44:55.435Z,1.00
2018-04-18T15:47:24.845Z,1.00
2018-04-18T15:49:52.301Z,1.00
2018-04-18T15:52:25.130Z,1.00
2018-04-18T15:54:53.363Z,1.00
2018-04-18T15:57:20.838Z,1.00
2018-04-18T15:59:48.290Z,1.00
2018-04-18T16:02:15.765Z,1.00
2018-04-18T16:04:43.228Z,1.00
2018-04-18T16:07:10.703Z,1.00
2018-04-18T16:09:38.301Z,1.00
2018-04-18T16:12:07.528Z,1.00
2018-04-18T16:14:34.996Z,1.00
2018-04-18T16:17:04.439Z,1.00
2018-04-18T16:19:31.909Z,1.00
2018-04-18T16:22:03.287Z,1.00
2018-04-18T16:27:24.473Z,1.00
2018-04-18T16:29:51.935Z,1.00
2018-04-18T16:32:19.410Z,1.00
2018-04-18T16:34:46.870Z,1.00
2018-04-18T16:37:14.358Z,1.00
2018-04-18T16:39:41.822Z,1.00
2018-04-18T16:42:09.278Z,1.00
2018-04-18T16:44:36.757Z,1.00
2018-04-18T16:47:04.211Z,1.00
2018-04-18T16:49:33.681Z,1.00
2018-04-18T16:52:01.141Z,1.00
2018-04-18T16:54:35.114Z,1.00
2018-04-18T16:57:02.573Z,1.00
2018-04-18T16:59:30.050Z,1.00
2018-04-18T17:01:57.518Z,1.00
2018-04-18T17:04:24.989Z,1.00
2018-04-18T17:06:54.381Z,1.00
2018-04-18T17:09:21.885Z,1.00
2018-04-18T17:11:53.601Z,1.00
2018-04-18T17:14:21.080Z,1.00
2018-04-18T17:16:50.287Z,1.00
2018-04-18T17:19:21.983Z,1.00
2018-04-18T17:21:49.429Z,1.00
2018-04-18T17:24:17.670Z,1.00
2018-04-18T17:26:45.121Z,1.00
2018-04-18T17:29:18.585Z,1.00
2018-04-18T17:31:49.657Z,1.00
2018-04-18T17:34:17.889Z,1.00
2018-04-18T17:36:45.350Z,1.00
2018-04-18T17:39:16.895Z,1.00
2018-04-18T17:41:44.367Z,1.00
2018-04-18T17:44:11.838Z,1.00
2018-04-18T17:46:44.586Z,1.00
2018-04-18T17:49:12.065Z,1.00
2018-04-18T17:51:39.526Z,1.00
2018-04-18T17:54:19.679Z,1.00
2018-04-18T17:56:47.122Z,1.00
2018-04-18T17:59:14.599Z,1.00
2018-04-18T18:01:42.058Z,1.00
2018-04-18T18:04:09.530Z,1.00
2018-04-18T18:06:37.749Z,1.00
2018-04-18T18:09:06.185Z,1.00
2018-04-18T18:11:34.400Z,1.00
2018-04-18T18:14:01.910Z,1.00
2018-04-18T18:16:39.237Z,1.00
2018-04-18T18:19:08.473Z,1.00
2018-04-18T18:21:36.852Z,1.00
2018-04-18T18:24:06.270Z,1.00
2018-04-18T18:26:33.734Z,1.00
2018-04-18T18:29:02.928Z,1.00
2018-04-18T18:31:31.181Z,1.00
2018-04-18T18:33:58.625Z,1.00
2018-04-18T18:36:26.095Z,1.00
2018-04-18T18:38:58.141Z,1.00
2018-04-18T18:41:27.370Z,1.00
2018-04-18T18:43:54.831Z,1.00
2018-04-18T18:46:22.301Z,1.00
2018-04-18T18:48:49.768Z,1.00
2018-04-18T18:51:17.989Z,1.00
2018-04-18T18:53:45.449Z,1.00
2018-04-18T18:56:12.922Z,1.00
2018-04-18T18:58:40.393Z,1.00
2018-04-18T19:01:07.861Z,1.00
2018-04-18T19:03:37.249Z,1.00
2018-04-18T19:06:09.327Z,1.00
2018-04-18T19:08:37.549Z,1.00
2018-04-18T19:11:06.945Z,1.00
2018-04-18T19:13:34.396Z,1.00
2018-04-18T19:16:02.637Z,1.00
2018-04-18T19:18:30.090Z,1.00
2018-04-18T19:20:57.567Z,1.00
2018-04-18T19:23:26.019Z,1.00
2018-04-18T19:25:57.602Z,3.90
2018-04-18T19:28:26.144Z,3.60
2018-04-18T19:30:53.455Z,4.60
2018-04-18T19:33:20.917Z,3.50
2018-04-18T19:35:50.141Z,3.60
2018-04-18T19:38:17.594Z,3.60
2018-04-18T19:40:45.831Z,3.40
2018-04-18T19:43:13.288Z,3.30
2018-04-18T19:45:46.364Z,2.20
2018-04-18T19:48:13.817Z,4.60
2018-04-18T19:50:42.057Z,5.90
2018-04-18T19:53:09.551Z,5.60
2018-04-18T19:55:36.993Z,8.30
2018-04-18T19:58:04.449Z,6.70
2018-04-18T20:00:32.817Z,6.50
2018-04-18T20:03:00.274Z,7.80
2018-04-18T20:05:28.551Z,21.70
2018-04-18T20:07:56.010Z,22.10
2018-04-18T20:10:23.507Z,22.10
2018-04-18T20:12:52.713Z,6.50
2018-04-18T20:15:25.338Z,8.00
2018-04-18T20:17:52.802Z,8.20
2018-04-18T20:20:20.866Z,11.90
2018-04-18T20:23:05.889Z,28.00
2018-04-18T20:25:33.378Z,28.50
2018-04-18T20:28:00.845Z,29.50
2018-04-18T20:30:30.303Z,28.60
2018-04-18T20:32:58.533Z,21.30
2018-04-18T20:35:25.992Z,20.70
2018-04-18T20:37:56.617Z,22.10
2018-04-18T20:40:24.083Z,26.90
2018-04-18T20:42:58.049Z,42.30
2018-04-18T20:45:26.507Z,42.30
2018-04-18T20:47:54.897Z,37.60
2018-04-18T20:50:28.083Z,32.50
2018-04-18T20:52:56.330Z,29.10
2018-04-18T20:55:23.808Z,29.00
2018-04-18T20:57:51.262Z,31.20
2018-04-18T21:00:18.721Z,30.60
2018-04-18T21:02:46.189Z,31.90
2018-04-18T21:05:15.627Z,31.30
2018-04-18T21:07:43.054Z,33.20
2018-04-18T21:10:10.508Z,44.10
2018-04-18T21:12:38.738Z,32.20
2018-04-18T21:15:06.197Z,32.30
2018-04-18T21:17:37.738Z,31.40
2018-04-18T21:20:05.207Z,39.90
2018-04-18T21:22:32.668Z,44.40
2018-04-18T21:25:00.122Z,44.10
2018-04-18T21:27:27.889Z,44.30
2018-04-18T21:29:55.354Z,53.80
2018-04-18T21:32:22.846Z,54.80
2018-04-18T21:34:51.062Z,54.20
2018-04-18T21:37:18.530Z,54.40
2018-04-18T21:39:45.997Z,61.40
2018-04-18T21:42:13.464Z,72.70
2018-04-18T21:44:40.945Z,76.40
2018-04-18T21:47:08.413Z,79.40
2018-04-18T21:49:35.902Z,83.60
2018-04-18T21:52:03.366Z,89.50
2018-04-18T21:54:30.825Z,90.20
2018-04-18T21:56:58.293Z,92.80
2018-04-18T21:59:25.763Z,96.20
2018-04-18T22:01:53.213Z,99.60
2018-04-18T22:04:21.446Z,99.90
2018-04-18T22:06:49.886Z,99.90
2018-04-18T22:09:18.126Z,93.20
2018-04-18T22:11:45.590Z,93.20
2018-04-18T22:14:20.054Z,84.60
2018-04-18T22:16:48.331Z,89.50
2018-04-18T22:19:15.766Z,89.50
2018-04-18T22:21:43.225Z,89.20
2018-04-18T22:24:10.694Z,72.00
2018-04-18T22:26:38.156Z,67.00
2018-04-18T22:29:05.623Z,83.30
2018-04-18T22:31:33.079Z,93.90
2018-04-18T22:34:05.483Z,93.50
2018-04-18T22:36:32.934Z,93.50
2018-04-18T22:39:01.170Z,93.60
2018-04-18T22:41:28.626Z,93.40
2018-04-18T22:43:56.093Z,94.40
2018-04-18T22:46:23.547Z,92.20
2018-04-18T22:48:51.019Z,91.10
2018-04-18T22:51:18.478Z,91.70
2018-04-18T22:53:45.946Z,91.90
2018-04-18T22:56:14.270Z,95.50
2018-04-18T22:58:41.733Z,95.60
2018-04-18T23:01:09.198Z,94.80
2018-04-18T23:03:36.666Z,99.90
2018-04-18T23:06:04.126Z,99.90
2018-04-18T23:08:31.597Z,99.90
2018-04-18T23:10:59.054Z,99.90
2018-04-18T23:13:27.293Z,98.70
2018-04-18T23:15:54.755Z,98.60
2018-04-18T23:18:22.239Z,97.60
2018-04-18T23:20:49.708Z,97.10
2018-04-18T23:23:17.162Z,95.80
2018-04-18T23:25:44.630Z,91.30
2018-04-18T23:28:12.081Z,82.90
2018-04-18T23:30:39.553Z,75.50
2018-04-18T23:33:07.019Z,79.90
2018-04-18T23:35:34.751Z,79.00
2018-04-18T23:38:02.201Z,76.20
2018-04-18T23:40:29.673Z,78.90
2018-04-18T23:43:03.597Z,84.10
2018-04-18T23:45:32.025Z,83.90
2018-04-18T23:48:00.246Z,85.50
2018-04-18T23:50:30.986Z,85.20
2018-04-18T23:52:58.433Z,84.00
2018-04-18T23:55:25.902Z,88.50
2018-04-18T23:57:53.366Z,83.10
